createdAt,value
2022-11-24T00:00:33.863Z,43.17
2022-11-24T00:05:38.679Z,43.22
2022-11-24T00:10:40.556Z,43.46
2022-11-24T00:15:42.440Z,43.34
2022-11-24T00:20:52.203Z,43.48
2022-11-24T00:25:53.938Z,43.45
2022-11-24T00:30:56.622Z,43.30
2022-11-24T00:36:00.271Z,43.28
2022-11-24T00:41:02.181Z,43.30
2022-11-24T00:46:04.619Z,43.60
2022-11-24T00:51:09.969Z,43.61
2022-11-24T00:56:12.834Z,43.61
2022-11-24T01:01:17.936Z,43.69
2022-11-24T01:06:22.540Z,43.64
2022-11-24T01:12:04.317Z,43.66
2022-11-24T01:17:06.534Z,43.50
2022-11-24T01:22:08.298Z,43.41
2022-11-24T01:27:10.195Z,43.35
2022-11-24T01:32:11.973Z,43.52
2022-11-24T01:37:13.742Z,43.25
2022-11-24T01:42:15.729Z,43.35
2022-11-24T01:47:36.579Z,43.38
2022-11-24T01:52:44.485Z,43.36
2022-11-24T01:57:49.833Z,43.65
2022-11-24T02:02:53.162Z,43.95
2022-11-24T02:07:59.945Z,43.85
2022-11-24T02:13:02.437Z,43.90
2022-11-24T02:18:04.523Z,44.02
2022-11-24T02:23:12.848Z,43.84
2022-11-24T02:28:18.806Z,43.77
2022-11-24T02:33:22.807Z,44.07
2022-11-24T02:38:33.040Z,44.07
2022-11-24T02:43:43.410Z,43.79
2022-11-24T02:48:45.189Z,43.72
2022-11-24T02:53:47.069Z,43.74
2022-11-24T02:58:48.950Z,43.77
2022-11-24T03:03:50.765Z,43.69
2022-11-24T03:08:52.603Z,43.49
2022-11-24T03:13:54.351Z,43.63
2022-11-24T03:18:56.280Z,43.56
2022-11-24T03:23:58.459Z,43.64
2022-11-24T03:29:00.335Z,43.66
2022-11-24T03:34:02.206Z,43.79
2022-11-24T03:39:04.332Z,43.87
2022-11-24T03:44:06.115Z,43.87
2022-11-24T03:49:07.950Z,44.02
2022-11-24T03:54:09.828Z,43.95
2022-11-24T03:59:11.607Z,43.95
2022-11-24T04:04:14.004Z,43.93
2022-11-24T04:09:15.805Z,43.88
2022-11-24T04:14:18.581Z,43.92
2022-11-24T04:19:20.455Z,43.97
2022-11-24T04:24:22.336Z,43.95
2022-11-24T04:29:24.155Z,44.09
2022-11-24T04:34:25.993Z,44.14
2022-11-24T04:39:28.898Z,44.00
2022-11-24T04:44:31.145Z,43.94
2022-11-24T04:49:33.064Z,44.05
2022-11-24T04:54:35.106Z,43.85
2022-11-24T04:59:37.234Z,43.94
2022-11-24T05:04:39.633Z,44.01
2022-11-24T05:10:00.042Z,44.11
2022-11-24T05:15:04.179Z,44.25
2022-11-24T05:20:07.291Z,44.29
2022-11-24T05:25:09.367Z,44.23
2022-11-24T05:30:12.033Z,44.37
2022-11-24T05:35:14.558Z,44.56
2022-11-24T05:40:17.052Z,44.43
2022-11-24T05:45:20.983Z,44.39
2022-11-24T05:50:23.270Z,44.34
2022-11-24T05:55:25.046Z,44.37
2022-11-24T06:00:27.728Z,44.48
2022-11-24T06:05:30.035Z,44.30
2022-11-24T06:10:31.805Z,44.38
2022-11-24T06:15:34.854Z,44.43
2022-11-24T06:20:36.587Z,44.23
2022-11-24T06:25:38.378Z,44.25
2022-11-24T06:30:40.045Z,44.18
2022-11-24T06:35:41.800Z,44.18
2022-11-24T06:40:43.575Z,44.37
2022-11-24T06:45:51.032Z,44.05
2022-11-24T06:50:53.279Z,43.88
2022-11-24T06:55:59.022Z,44.01
2022-11-24T07:01:00.857Z,44.07
2022-11-24T07:06:02.676Z,43.93
2022-11-24T07:11:06.274Z,44.20
2022-11-24T07:16:25.245Z,44.18
2022-11-24T07:21:28.271Z,44.15
2022-11-24T07:26:30.090Z,44.04
2022-11-24T07:31:32.175Z,44.22
2022-11-24T07:36:33.991Z,44.24
2022-11-24T07:41:35.709Z,44.33
2022-11-24T07:46:37.469Z,44.23
2022-11-24T07:51:39.180Z,44.55
2022-11-24T07:56:41.379Z,44.61
2022-11-24T08:01:43.188Z,44.99
2022-11-24T08:06:47.538Z,44.95
2022-11-24T08:11:49.509Z,45.02
2022-11-24T08:16:51.361Z,45.12
2022-11-24T08:21:53.203Z,45.26
2022-11-24T08:26:55.089Z,45.29
2022-11-24T08:31:57.874Z,45.21
2022-11-24T08:36:59.689Z,45.43
2022-11-24T08:42:01.527Z,45.19
2022-11-24T08:47:03.289Z,44.84
2022-11-24T08:52:05.293Z,44.86
2022-11-24T08:57:07.227Z,44.64
2022-11-24T09:02:14.768Z,44.79
2022-11-24T09:07:16.655Z,44.63
2022-11-24T09:12:18.368Z,44.70
2022-11-24T09:17:20.029Z,45.27
2022-11-24T09:22:21.728Z,45.38
2022-11-24T09:27:23.677Z,45.42
2022-11-24T09:32:25.915Z,44.92
2022-11-24T09:37:32.460Z,45.40
2022-11-24T09:42:53.780Z,45.48
2022-11-24T09:48:08.446Z,45.55
2022-11-24T09:53:31.587Z,45.29
2022-11-24T09:58:51.760Z,45.40
2022-11-24T10:03:54.197Z,45.43
2022-11-24T10:09:07.986Z,45.61
2022-11-24T10:14:47.405Z,45.58
2022-11-24T10:20:06.177Z,45.68
2022-11-24T10:26:03.626Z,45.66
2022-11-24T10:31:24.081Z,45.48
2022-11-24T10:37:01.406Z,45.42
2022-11-24T10:42:15.972Z,45.57
2022-11-24T10:47:22.985Z,45.58
2022-11-24T10:52:25.295Z,45.44
2022-11-24T10:57:39.161Z,45.54
2022-11-24T11:02:41.055Z,45.48
2022-11-24T11:07:43.014Z,45.51
2022-11-24T11:12:45.847Z,45.50
2022-11-24T11:17:52.257Z,45.72
2022-11-24T11:22:56.313Z,45.71
2022-11-24T11:28:19.915Z,45.76
2022-11-24T11:38:49.047Z,45.79
2022-11-24T11:44:01.423Z,45.77
2022-11-24T11:49:03.574Z,46.31
2022-11-24T11:54:08.197Z,45.92
2022-11-24T11:59:22.365Z,45.91
2022-11-24T12:04:32.594Z,45.70
2022-11-24T12:09:56.336Z,45.41
2022-11-24T12:15:23.506Z,45.60
2022-11-24T12:20:44.003Z,45.87
2022-11-24T12:25:47.572Z,46.09
2022-11-24T12:31:12.493Z,46.12
2022-11-24T12:36:31.150Z,46.00
2022-11-24T12:41:47.417Z,45.83
2022-11-24T12:46:59.270Z,45.74
2022-11-24T12:52:24.720Z,46.02
2022-11-24T12:57:33.273Z,46.12
2022-11-24T13:03:00.639Z,46.25
2022-11-24T13:08:04.427Z,45.95
2022-11-24T13:13:08.499Z,46.22
2022-11-24T13:18:42.139Z,46.43
2022-11-24T13:24:06.935Z,46.61
2022-11-24T13:29:27.326Z,46.52
2022-11-24T13:34:42.916Z,46.74
2022-11-24T13:39:56.211Z,46.79
2022-11-24T13:44:59.234Z,46.77
2022-11-24T13:50:03.635Z,46.79
2022-11-24T13:55:11.854Z,46.99
2022-11-24T14:00:26.868Z,46.92
2022-11-24T14:05:39.032Z,46.95
2022-11-24T14:10:42.178Z,46.69
2022-11-24T14:15:44.303Z,46.86
2022-11-24T14:20:46.164Z,46.83
2022-11-24T14:25:52.465Z,46.64
2022-11-24T14:31:24.947Z,46.50
2022-11-24T14:36:26.889Z,46.54
2022-11-24T14:41:28.777Z,46.70
2022-11-24T14:46:30.601Z,46.68
2022-11-24T14:51:37.623Z,46.63
2022-11-24T14:56:40.512Z,46.60
2022-11-24T15:01:42.515Z,46.62
2022-11-24T15:06:47.764Z,46.54
2022-11-24T15:11:49.729Z,46.63
2022-11-24T15:16:51.525Z,46.55
2022-11-24T15:21:53.432Z,46.57
2022-11-24T15:27:01.587Z,46.73
2022-11-24T15:32:14.353Z,46.79
2022-11-24T15:37:16.163Z,46.79
2022-11-24T15:42:17.951Z,46.72
2022-11-24T15:47:19.697Z,46.62
2022-11-24T15:52:21.607Z,46.72
2022-11-24T15:57:23.442Z,46.65
2022-11-24T16:02:25.304Z,46.77
2022-11-24T16:07:27.516Z,46.72
2022-11-24T16:12:29.335Z,46.63
2022-11-24T16:17:31.050Z,46.79
2022-11-24T16:22:32.699Z,46.74
2022-11-24T16:27:34.484Z,46.69
2022-11-24T16:32:36.284Z,46.89
2022-11-24T16:37:38.704Z,46.73
2022-11-24T16:42:40.442Z,46.75
2022-11-24T16:47:42.992Z,46.78
2022-11-24T16:52:44.720Z,46.77
2022-11-24T16:57:47.038Z,46.90
2022-11-24T17:02:48.852Z,46.81
2022-11-24T17:07:50.719Z,46.69
2022-11-24T17:12:52.480Z,46.62
2022-11-24T17:18:22.316Z,46.49
2022-11-24T17:23:16.019Z,46.41
2022-11-24T17:28:17.759Z,46.52
2022-11-24T17:33:19.394Z,46.50
2022-11-24T17:38:21.207Z,46.27
2022-11-24T17:43:22.983Z,46.42
2022-11-24T17:48:25.320Z,46.59
2022-11-24T17:53:27.817Z,46.52
2022-11-24T17:58:29.993Z,46.59
2022-11-24T18:03:32.646Z,46.64
2022-11-24T18:08:38.552Z,46.71
2022-11-24T18:13:56.703Z,46.73
2022-11-24T18:19:08.836Z,46.90
2022-11-24T18:24:11.963Z,46.97
2022-11-24T18:29:13.883Z,47.03
2022-11-24T18:34:15.693Z,47.11
2022-11-24T18:39:18.785Z,47.03
2022-11-24T18:44:20.722Z,46.88
2022-11-24T18:49:22.606Z,46.81
2022-11-24T18:54:24.461Z,46.82
2022-11-24T18:59:26.398Z,46.72
2022-11-24T19:04:44.435Z,46.80
2022-11-24T19:09:46.685Z,46.79
2022-11-24T19:14:48.424Z,46.57
2022-11-24T19:19:51.721Z,46.47
2022-11-24T19:24:53.552Z,46.68
2022-11-24T19:29:55.331Z,46.75
2022-11-24T19:34:57.205Z,46.76
2022-11-24T19:39:59.047Z,46.62
2022-11-24T19:45:00.969Z,46.57
2022-11-24T19:50:07.393Z,46.49
2022-11-24T19:55:12.125Z,46.46
2022-11-24T20:00:14.583Z,46.38
2022-11-24T20:05:16.453Z,46.37
2022-11-24T20:10:18.298Z,46.37
2022-11-24T20:15:20.897Z,46.23
2022-11-24T20:20:22.799Z,46.47
2022-11-24T20:25:24.995Z,46.54
2022-11-24T20:30:26.709Z,46.43
2022-11-24T20:35:28.543Z,46.31
2022-11-24T20:40:30.382Z,46.13
2022-11-24T20:45:32.295Z,46.22
2022-11-24T20:50:36.058Z,46.17
2022-11-24T20:55:37.940Z,46.18
2022-11-24T21:00:39.966Z,46.03
2022-11-24T21:05:41.909Z,46.15
2022-11-24T21:10:51.462Z,46.28
2022-11-24T21:15:53.855Z,46.25
2022-11-24T21:20:59.127Z,46.21
2022-11-24T21:26:05.408Z,46.35
2022-11-24T21:31:08.919Z,46.17
2022-11-24T21:36:11.204Z,46.25
2022-11-24T21:41:14.065Z,46.25
2022-11-24T21:46:16.354Z,46.42
2022-11-24T21:51:19.194Z,46.46
2022-11-24T21:56:22.105Z,46.52
2022-11-24T22:01:25.257Z,46.36
2022-11-24T22:06:27.101Z,46.30
2022-11-24T22:11:28.894Z,46.25
2022-11-24T22:16:30.875Z,46.17
2022-11-24T22:21:33.624Z,46.07
2022-11-24T22:26:35.919Z,46.11
2022-11-24T22:31:37.887Z,45.89
2022-11-24T22:36:39.881Z,45.89
2022-11-24T22:41:41.771Z,45.99
2022-11-24T22:46:43.745Z,46.02
2022-11-24T22:51:45.505Z,46.31
2022-11-24T22:56:47.476Z,46.30
2022-11-24T23:01:49.277Z,45.79
2022-11-24T23:06:51.212Z,45.75
2022-11-24T23:11:52.979Z,45.82
2022-11-24T23:16:54.872Z,45.62
2022-11-24T23:21:56.975Z,45.75
2022-11-24T23:26:58.795Z,45.94
2022-11-24T23:32:00.754Z,46.07
2022-11-24T23:37:02.501Z,46.16
2022-11-24T23:42:04.579Z,46.23
2022-11-24T23:47:06.671Z,46.14
2022-11-24T23:52:08.605Z,46.16
2022-11-24T23:57:10.342Z,46.19
